createdAt,value
2022-12-25T09:06:08.982Z,99715.59
2022-12-25T09:08:41.023Z,99707.91
2022-12-25T09:11:13.763Z,99714.72
2022-12-25T09:13:42.019Z,99715.56
2022-12-25T09:16:12.207Z,99701.63
2022-12-25T09:18:40.662Z,99704.28
2022-12-25T09:21:11.756Z,99711.03
2022-12-25T09:23:39.713Z,99710.72
2022-12-25T09:26:10.501Z,99714.75
2022-12-25T09:28:37.978Z,99715.19
2022-12-25T09:31:06.011Z,99716.53
2022-12-25T09:33:33.894Z,99716.44
2022-12-25T09:36:04.504Z,99710.66
2022-12-25T09:38:32.572Z,99713.97
2022-12-25T09:41:34.140Z,99712.06
2022-12-25T09:44:10.368Z,99718.75
2022-12-25T09:46:50.345Z,99719.00
2022-12-25T09:49:24.378Z,99715.56
2022-12-25T09:51:58.467Z,99712.13
2022-12-25T09:54:39.576Z,99714.88
2022-12-25T09:57:11.480Z,99711.53
2022-12-25T09:59:39.547Z,99717.81
2022-12-25T10:02:44.517Z,99716.75
2022-12-25T10:05:41.504Z,99709.63
2022-12-25T10:08:17.844Z,99705.25
2022-12-25T10:11:13.975Z,99697.13
2022-12-25T10:14:20.121Z,99704.09
2022-12-25T10:16:47.594Z,99690.44
2022-12-25T10:19:40.419Z,99698.28
2022-12-25T10:22:27.555Z,99696.75
2022-12-25T10:24:57.798Z,99687.84
2022-12-25T10:27:35.186Z,99699.63
2022-12-25T10:30:17.414Z,99693.53
2022-12-25T10:32:46.350Z,99692.06
2022-12-25T10:35:17.490Z,99689.13
2022-12-25T10:37:48.735Z,99683.91
2022-12-25T10:40:23.141Z,99691.22
2022-12-25T10:42:59.378Z,99683.31
2022-12-25T10:45:26.864Z,99680.94
2022-12-25T10:48:07.455Z,99676.38
2022-12-25T10:50:43.177Z,99688.03
2022-12-25T10:53:19.409Z,99686.53
2022-12-25T10:56:05.428Z,99689.09
2022-12-25T10:58:34.094Z,99681.59
2022-12-25T11:01:05.197Z,99679.50
2022-12-25T11:03:47.512Z,99665.00
2022-12-25T11:06:26.877Z,99661.94
2022-12-25T11:08:59.761Z,99665.38
2022-12-25T11:11:29.464Z,99647.44
2022-12-25T11:14:00.355Z,99646.56
2022-12-25T11:16:35.892Z,99655.28
2022-12-25T11:19:26.417Z,99656.81
2022-12-25T11:21:56.584Z,99648.78
2022-12-25T11:24:29.822Z,99644.50
2022-12-25T11:27:00.005Z,99647.75
2022-12-25T11:29:36.480Z,99646.88
2022-12-25T11:32:07.337Z,99646.94
2022-12-25T11:34:43.851Z,99640.38
2022-12-25T11:37:15.747Z,99640.09
2022-12-25T11:39:43.533Z,99638.81
2022-12-25T11:42:29.717Z,99635.66
2022-12-25T11:45:06.176Z,99630.63
2022-12-25T11:47:51.497Z,99633.88
2022-12-25T11:50:38.360Z,99633.38
2022-12-25T11:53:15.012Z,99624.09
2022-12-25T11:55:57.154Z,99617.63
2022-12-25T11:58:41.627Z,99620.81
2022-12-25T12:01:22.141Z,99627.91
2022-12-25T12:03:49.677Z,99618.47
2022-12-25T12:06:29.825Z,99620.19
2022-12-25T12:09:09.160Z,99620.69
2022-12-25T12:11:44.049Z,99617.84
2022-12-25T12:14:46.850Z,99631.91
2022-12-25T12:17:17.327Z,99633.47
2022-12-25T12:19:46.497Z,99642.94
2022-12-25T12:22:19.833Z,99633.81
2022-12-25T12:24:58.532Z,99625.66
2022-12-25T12:27:36.523Z,99630.66
2022-12-25T12:30:06.867Z,99629.16
2022-12-25T12:32:34.427Z,99636.56
2022-12-25T12:35:22.857Z,99626.13
2022-12-25T12:37:55.648Z,99620.63
2022-12-25T12:40:36.421Z,99616.44
2022-12-25T12:43:05.438Z,99626.59
2022-12-25T12:45:36.432Z,99634.44
2022-12-25T12:48:17.123Z,99631.13
2022-12-25T12:50:44.961Z,99625.94
2022-12-25T12:53:24.495Z,99640.38
2022-12-25T12:55:53.214Z,99638.38
2022-12-25T12:58:35.634Z,99639.88
2022-12-25T13:01:30.337Z,99641.91
2022-12-25T13:04:09.881Z,99641.53
2022-12-25T13:06:46.161Z,99644.88
2022-12-25T13:09:34.863Z,99642.38
2022-12-25T13:12:08.195Z,99642.00
2022-12-25T13:14:37.986Z,99642.22
2022-12-25T13:17:07.988Z,99638.09
2022-12-25T13:19:37.447Z,99641.53
2022-12-25T13:22:06.765Z,99628.63
2022-12-25T13:24:36.560Z,99634.53
2022-12-25T13:27:23.021Z,99637.72
2022-12-25T13:29:50.971Z,99630.41
2022-12-25T13:32:24.302Z,99637.16
2022-12-25T13:34:52.881Z,99638.91
2022-12-25T13:37:24.952Z,99628.03
2022-12-25T13:39:58.211Z,99645.16
2022-12-25T13:42:32.599Z,99632.81
2022-12-25T13:45:08.172Z,99634.47
2022-12-25T13:47:38.233Z,99643.19
2022-12-25T13:50:20.546Z,99646.69
2022-12-25T13:52:48.259Z,99642.78
2022-12-25T13:55:21.418Z,99646.69
2022-12-25T13:57:55.245Z,99637.84
2022-12-25T14:00:38.814Z,99640.44
2022-12-25T14:03:15.159Z,99641.09
2022-12-25T14:05:43.663Z,99650.63
2022-12-25T14:08:23.709Z,99646.72
2022-12-25T14:10:52.994Z,99642.03
2022-12-25T14:13:24.873Z,99645.53
2022-12-25T14:15:53.599Z,99648.59
2022-12-25T14:18:23.031Z,99646.06
2022-12-25T14:21:35.300Z,99643.53
2022-12-25T14:24:03.004Z,99642.31
2022-12-25T14:26:33.450Z,99648.78
2022-12-25T14:29:15.699Z,99660.44
2022-12-25T14:31:46.304Z,99658.00
2022-12-25T14:34:27.513Z,99658.19
2022-12-25T14:36:55.255Z,99668.78
2022-12-25T14:39:29.988Z,99667.50
2022-12-25T14:41:57.895Z,99665.38
2022-12-25T14:44:40.295Z,99670.00
2022-12-25T14:47:10.496Z,99668.03
2022-12-25T14:49:39.238Z,99673.13
2022-12-25T14:52:18.585Z,99661.44
2022-12-25T14:55:00.211Z,99661.09
2022-12-25T14:57:37.919Z,99664.38
2022-12-25T15:00:20.520Z,99655.78
2022-12-25T15:02:51.545Z,99664.19
2022-12-25T15:05:34.602Z,99670.63
2022-12-25T15:08:13.988Z,99674.06
2022-12-25T15:13:30.809Z,99674.66
2022-12-25T15:16:00.886Z,99667.38
2022-12-25T15:18:34.476Z,99652.84
2022-12-25T15:21:02.701Z,99661.91
2022-12-25T15:23:30.243Z,99660.78
2022-12-25T15:25:57.827Z,99661.72
2022-12-25T15:28:25.359Z,99658.28
2022-12-25T15:30:52.947Z,99659.44
2022-12-25T15:33:20.514Z,99658.91
2022-12-25T15:35:48.917Z,99662.06
2022-12-25T15:38:16.495Z,99669.88
2022-12-25T15:40:44.188Z,99671.81
2022-12-25T15:43:39.326Z,99679.09
2022-12-25T15:46:02.537Z,99665.94
2022-12-25T15:48:30.163Z,99662.78
2022-12-25T15:50:57.724Z,99661.09
2022-12-25T15:53:26.934Z,99661.13
2022-12-25T15:55:54.623Z,99662.44
2022-12-25T15:58:23.467Z,99661.38
2022-12-25T16:00:50.952Z,99662.72
2022-12-25T16:03:18.458Z,99674.13
2022-12-25T16:05:46.047Z,99666.72
2022-12-25T16:08:13.580Z,99668.22
2022-12-25T16:10:41.082Z,99673.00
2022-12-25T16:13:08.623Z,99668.34
2022-12-25T16:15:36.181Z,99663.50
2022-12-25T16:18:03.955Z,99662.69
2022-12-25T16:20:32.319Z,99659.91
2022-12-25T16:22:59.841Z,99659.06
2022-12-25T16:25:27.332Z,99657.34
2022-12-25T16:27:54.878Z,99652.25
2022-12-25T16:30:22.439Z,99653.31
2022-12-25T16:32:50.447Z,99654.03
2022-12-25T16:35:17.990Z,99643.72
2022-12-25T16:37:45.557Z,99646.16
2022-12-25T16:40:13.213Z,99651.09
2022-12-25T16:42:40.713Z,99649.91
2022-12-25T16:45:08.504Z,99649.84
2022-12-25T16:47:36.463Z,99649.41
2022-12-25T16:50:06.749Z,99652.94
2022-12-25T16:52:35.151Z,99648.59
2022-12-25T16:55:04.337Z,99647.56
2022-12-25T16:57:33.112Z,99644.09
2022-12-25T17:00:00.980Z,99644.47
2022-12-25T17:02:28.527Z,99646.00
2022-12-25T17:04:56.159Z,99644.31
2022-12-25T17:07:23.667Z,99648.38
2022-12-25T17:09:51.150Z,99646.38
2022-12-25T17:12:18.752Z,99634.78
2022-12-25T17:14:46.175Z,99634.31
2022-12-25T17:17:13.643Z,99645.69
2022-12-25T17:19:41.644Z,99642.91
2022-12-25T17:22:09.618Z,99643.13
2022-12-25T17:24:39.943Z,99635.88
2022-12-25T17:27:09.356Z,99647.19
2022-12-25T17:29:39.818Z,99642.25
2022-12-25T17:32:10.544Z,99631.06
2022-12-25T17:34:38.519Z,99621.34
2022-12-25T17:37:06.367Z,99607.63
2022-12-25T17:39:34.008Z,99600.78
2022-12-25T17:42:01.463Z,99602.72
2022-12-25T17:44:29.028Z,99616.47
2022-12-25T17:46:56.587Z,99620.88
2022-12-25T17:49:24.343Z,99620.88
2022-12-25T17:51:53.487Z,99620.50
2022-12-25T17:54:21.053Z,99623.56
2022-12-25T17:56:49.447Z,99623.63
2022-12-25T17:59:18.809Z,99627.56
2022-12-25T18:01:48.182Z,99632.13
2022-12-25T18:04:15.940Z,99628.00
2022-12-25T18:06:43.605Z,99632.81
2022-12-25T18:09:11.951Z,99634.38
2022-12-25T18:11:41.779Z,99622.81
2022-12-25T18:14:13.185Z,99621.53
2022-12-25T18:16:43.397Z,99622.56
2022-12-25T18:19:11.920Z,99614.69
2022-12-25T18:21:39.582Z,99615.72
2022-12-25T18:24:08.410Z,99614.97
2022-12-25T18:26:36.046Z,99612.81
2022-12-25T18:29:03.921Z,99606.66
2022-12-25T18:31:31.482Z,99605.66
2022-12-25T18:33:59.936Z,99608.53
2022-12-25T18:36:28.891Z,99605.69
2022-12-25T18:38:57.120Z,99606.34
2022-12-25T18:41:25.427Z,99604.28
2022-12-25T18:43:55.696Z,99607.09
2022-12-25T18:46:25.884Z,99607.69
2022-12-25T18:48:56.864Z,99603.44
2022-12-25T18:51:26.734Z,99597.91
2022-12-25T18:53:58.746Z,99590.81
2022-12-25T18:56:26.260Z,99591.22
2022-12-25T18:58:53.965Z,99590.28
2022-12-25T19:01:23.718Z,99593.28
2022-12-25T19:03:57.170Z,99583.72
2022-12-25T19:06:32.761Z,99590.63
2022-12-25T19:09:00.552Z,99574.63
2022-12-25T19:11:28.131Z,99584.16
2022-12-25T19:13:56.206Z,99579.09
2022-12-25T19:16:23.949Z,99573.00
2022-12-25T19:18:51.515Z,99578.41
2022-12-25T19:21:19.008Z,99596.22
2022-12-25T19:23:46.622Z,99581.44
2022-12-25T19:26:14.221Z,99587.19
2022-12-25T19:28:41.863Z,99583.22
2022-12-25T19:31:10.521Z,99584.38
2022-12-25T19:33:41.079Z,99598.38
2022-12-25T19:36:13.393Z,99590.19
2022-12-25T19:38:41.537Z,99592.06
2022-12-25T19:41:12.665Z,99584.25
2022-12-25T19:43:42.341Z,99585.78
2022-12-25T19:46:31.256Z,99573.63
2022-12-25T19:49:04.119Z,99578.16
2022-12-25T19:51:37.868Z,99578.69
2022-12-25T19:54:06.223Z,99582.53
2022-12-25T19:56:34.681Z,99589.91
2022-12-25T19:59:02.703Z,99574.41
2022-12-25T20:01:30.936Z,99553.59
2022-12-25T20:03:58.891Z,99551.50
2022-12-25T20:06:29.636Z,99534.78
2022-12-25T20:09:01.670Z,99539.38
2022-12-25T20:11:31.419Z,99552.75
2022-12-25T20:13:59.254Z,99560.38
2022-12-25T20:16:27.523Z,99552.53
2022-12-25T20:18:56.568Z,99558.13
2022-12-25T20:21:27.271Z,99565.16
2022-12-25T20:23:55.633Z,99557.22
2022-12-25T20:26:30.413Z,99548.47
2022-12-25T20:29:07.079Z,99534.72
2022-12-25T20:31:35.606Z,99544.41
2022-12-25T20:34:08.571Z,99535.94
2022-12-25T20:36:37.967Z,99529.56
2022-12-25T20:39:09.494Z,99531.19
2022-12-25T20:41:38.302Z,99531.88
2022-12-25T20:44:08.484Z,99537.09
2022-12-25T20:46:36.715Z,99526.06
2022-12-25T20:49:04.358Z,99536.59
2022-12-25T20:51:31.966Z,99536.06
2022-12-25T20:53:59.583Z,99542.63
2022-12-25T20:56:27.448Z,99545.16
2022-12-25T20:58:56.965Z,99543.28
2022-12-25T21:01:25.237Z,99535.94
2022-12-25T21:03:53.448Z,99549.41
2022-12-25T21:06:22.056Z,99541.44
2022-12-25T21:08:49.739Z,99531.41
2022-12-25T21:11:18.110Z,99520.47
2022-12-25T21:13:47.021Z,99523.03
2022-12-25T21:16:20.042Z,99529.13
2022-12-25T21:18:50.059Z,99533.88
2022-12-25T21:21:18.581Z,99533.41
2022-12-25T21:23:46.689Z,99529.09
2022-12-25T21:26:23.987Z,99523.56
2022-12-25T21:28:54.651Z,99526.91
2022-12-25T21:31:23.909Z,99516.97
2022-12-25T21:33:53.004Z,99521.06
2022-12-25T21:36:24.435Z,99517.91
2022-12-25T21:38:56.717Z,99510.31
2022-12-25T21:41:25.293Z,99507.84
2022-12-25T21:43:53.013Z,99494.00
2022-12-25T21:46:21.263Z,99504.53
2022-12-25T21:48:48.987Z,99509.66
2022-12-25T21:51:37.423Z,99517.53
2022-12-25T21:54:06.216Z,99521.97
2022-12-25T21:56:41.364Z,99521.34
2022-12-25T21:59:13.349Z,99532.94
2022-12-25T22:01:41.067Z,99536.84
2022-12-25T22:04:09.891Z,99536.41
2022-12-25T22:06:56.238Z,99531.66
2022-12-25T22:09:24.491Z,99537.81
2022-12-25T22:12:11.040Z,99539.47
2022-12-25T22:14:54.290Z,99539.88
2022-12-25T22:17:50.611Z,99535.50
2022-12-25T22:20:23.345Z,99534.38
2022-12-25T22:22:51.570Z,99517.84
2022-12-25T22:25:20.249Z,99511.34
2022-12-25T22:27:48.675Z,99513.47
2022-12-25T22:30:19.660Z,99511.22
2022-12-25T22:32:48.109Z,99507.47
2022-12-25T22:35:16.959Z,99508.41
2022-12-25T22:37:45.129Z,99514.25
2022-12-25T22:40:17.373Z,99512.66
2022-12-25T22:42:44.948Z,99526.78
2022-12-25T22:45:16.441Z,99524.00
2022-12-25T22:47:44.048Z,99526.78
2022-12-25T22:50:14.834Z,99515.56
2022-12-25T22:52:43.150Z,99508.81
2022-12-25T22:55:10.947Z,99512.25
2022-12-25T22:57:38.637Z,99512.94
2022-12-25T23:00:08.873Z,99503.03
2022-12-25T23:02:36.622Z,99490.78
2022-12-25T23:05:04.687Z,99488.09
2022-12-25T23:07:32.231Z,99491.47
2022-12-25T23:09:59.808Z,99506.88
2022-12-25T23:12:45.713Z,99500.31
2022-12-25T23:15:13.311Z,99509.25
2022-12-25T23:18:19.512Z,99508.97
2022-12-25T23:21:05.665Z,99516.09
2022-12-25T23:23:51.532Z,99501.81
2022-12-25T23:26:20.987Z,99505.09
2022-12-25T23:29:06.757Z,99502.97
2022-12-25T23:31:38.119Z,99503.72
2022-12-25T23:34:06.691Z,99496.47
2022-12-25T23:36:34.299Z,99493.19
2022-12-25T23:39:08.922Z,99485.94
2022-12-25T23:41:39.315Z,99477.41
2022-12-25T23:44:08.074Z,99464.44
2022-12-25T23:46:35.612Z,99478.50
2022-12-25T23:49:03.458Z,99475.28
2022-12-25T23:51:31.603Z,99478.16
2022-12-25T23:53:59.194Z,99478.38
2022-12-25T23:56:26.786Z,99476.81
2022-12-25T23:58:54.416Z,99475.19
